Prospect, Indiana
Current Conditions -  °F | °C
As of 8:55 AM on Wednesday 26 Nov 2014 (Local Time) from KDCY Reporting Station
Overcast Overcast  
Wind Chill: 25°   Ceiling: 1400
Heat Index: 30°   Visibility: 10mi
Dew Point: 26°   Wind: 5mph
Humidity: 83%   Direction: 120°ESE
Pressure: 30.15"   Gusts: NA
Location:  38.6165°N, 86.6265°W
Report Text: KDCY 261355Z AUTO 12004KT 10SM OVC014 M01/M03 A3015 RMK AO2 T10101035
Loading
Personal Weather Stations






























Interactive Weather Map New forecast layout! Learn more

10-Day Weather Forecast

Advertisements
Track Severe Weather on mobile